Portada
METAR-TAF:

METAR-TAF

Aeroports :

Doha, Qatar

latitud: 25-16-23N, longitud: 51-36-29E, altitud: 4 m

Observació

L'informe es va fer fa 20 minuts, a les 11:00 UTC
Vent 17 kt del Nord
Temperatura 32°C
Humitat 41%
Pressió 1012 hPa
Visibilitat 10 km o més
sense núvols per sota de 1500 mi sense presència de cumulonimbus.

METAR: OTHH 221100Z 36017KT CAVOK 32/17 Q1012 NOSIG

Hora: 14:20 (11:20 UTC)

Pronòstic

L'informe es va fer fa 6 hores i 14 minuts, a les 05:06 UTC
Pronòstic vàlid del 22 a les 06 UTC al 23 a les 12 UTC
Vent 14 kt del Nord/Nord-Oest
Visibilitat: 8000 m
Temporalment
l' 22 a les 06 UTC al 22 a les 15 UTC
Vent 20 kt del Nord amb ràfegues de 30 kt
Probabilitat 30% :
Temporalment
l' 22 a les 09 UTC al 22 a les 14 UTC
Visibilitat: 5000 m
torb alta de pols
Temporalment
l' 23 a les 02 UTC al 23 a les 12 UTC
Vent 10 kt del Nord/Nord-Est

TAF: OTHH 220506Z 2206/2312 34014KT 8000 NSC TEMPO 2206/2215 35020G30KT PROB30 TEMPO 2209/2214 5000 BLDU TEMPO 2302/2312 03010KT

Observacions i pronòstics meteorològics de més de 4000 aeroports (METAR i TAF).

Les estacions disponibles són els punts grocs i vermells al mapa.

Posi el ratolí al punt desitjat per veure el nom de l'estació.

Feu clic per veure les observacions i els pronòstics meteorològics.

Per canviar el mapa: feu clic els botons verds amb una creu de color negre per apropar; al botó verd amb un guió per allunyar la imatge; o en les fletxes verdes per a mapes adjacents.


METAR-TAF: